WBGG Airport Information

Runway Information
Runway 07 Length 12402 ft width 151 ft
Elevation 88 ft Threshold ft Heading 68
Runway 25 Length 12402 ft Width 151 ft
Elevation 75 ft Threshold 320 ft Heading 248
Airport Frequencies
Type ACC Name RDR Frequency 134.5 MHZ
Type APP Name APP DIRECT Frequency 120.2 MHZ
Type ATIS Name ATIS Frequency 128.4 MHZ
Type GND Name GND Frequency 121.9 MHZ
Type TWR Name TWR Frequency 118.1 MHZ
Airport Navaids
Type NDB Name Kuching Frequency 402 KHZ
Type VOR-DME Name Kuching Frequency 114500 KHZ
Airport Weather Information & NOTAM
ADDS - METARS form results

(2058 UTC 14 August 2022)
Data provider http://aviationweather.gov/metar/data/
 
METAR text: WBGG 142030Z VRB02KT 9999 SCT020 25/24 Q1009 NOSIG
Conditions at: WBGG (KUCHING (CIV/MIL, MY) observed 2030 UTC 14 August 2022
Temperature: 25.0°C (77°F)
Dewpoint: 24.0°C (75°F) [RH = 94%]
Pressure (altimeter): 29.79 inches Hg (1009.0 mb)
Winds: variable direction winds at 2 MPH (2 knots; 1.0 m/s)
Visibility: 6 or more miles (10+ km)
Ceiling: at least 12,000 feet AGL
Clouds: scattered clouds at 2000 feet AGL
Weather: no significant weather observed at this time

METAR text: WBGG 142000Z VRB02KT 9999 SCT020 25/24 Q1009 NOSIG
Conditions at: WBGG (KUCHING (CIV/MIL, MY) observed 2000 UTC 14 August 2022
Temperature: 25.0°C (77°F)
Dewpoint: 24.0°C (75°F) [RH = 94%]
Pressure (altimeter): 29.79 inches Hg (1009.0 mb)
Winds: variable direction winds at 2 MPH (2 knots; 1.0 m/s)
Visibility: 6 or more miles (10+ km)
Ceiling: at least 12,000 feet AGL
Clouds: scattered clouds at 2000 feet AGL
Weather: no significant weather observed at this time

Forecast for: WBGG (KUCHING (CIV/MIL, MY)
Text: TAF WBGG 141700Z 1418/1518 18005KT 9999 FEW020
Forecast period: 1800 UTC 14 August 2022 to 1800 UTC 15 August 2022
Forecast type: FROM: standard forecast or significant change
Winds: from the S (180 degrees) at 6 MPH (5 knots; 2.6 m/s)
Visibility: 6 or more miles (10+ km)
Ceiling: at least 12,000 feet AGL
Clouds: few clouds at 2000 feet AGL
Weather: no significant weather forecast for this period
Text: TEMPO 1507/1511 23006KT 3000 TSRA FEW015CB SCT020
Forecast period: 0700 to 1100 UTC 15 August 2022
Forecast type: TEMPORARY: The following changes expected for less than half the time period
Winds: from the SW (230 degrees) at 7 MPH (6 knots; 3.1 m/s)
Visibility: 1.86 miles (2.99 km)
Ceiling: at least 12,000 feet AGL
Clouds: few clouds at 1500 feet AGL
scattered clouds at 2000 feet AGL
Weather: TSRA  (rain associated with thunderstorm(s))